Time;durP1;ratioP1;P1;durP2;ratioP2;P2;SDS_P1;SDS_P2;PMS_P1;PMS_P2;Temp;Humidity;BMP_temperature;BMP_pressure;BME280_temperature;BME280_humidity;BME280_pressure;Samples;Min_cycle;Max_cycle;Signal;HPM_P1;HPM_P2
2022/03/31 00:02:44;;;;;;;0.90;0.40;;;16.90;55.70;;;;;;10412735;28;20424;-59
2022/03/31 00:08:00;;;;;;;0.32;0.30;;;17.00;55.50;;;;;;10383399;28;20045;-59
2022/03/31 00:13:04;;;;;;;1.48;0.70;;;16.90;55.50;;;;;;10396458;28;20037;-59
2022/03/31 00:18:07;;;;;;;0.60;0.40;;;16.90;55.70;;;;;;10360850;28;20508;-60
2022/03/31 00:35:40;;;;;;;1.42;0.60;;;17.10;55.10;;;;;;10385444;28;20466;-59
2022/03/31 00:40:41;;;;;;;1.63;0.80;;;17.10;54.90;;;;;;10392461;28;20041;-59
2022/03/31 00:45:48;;;;;;;1.15;0.50;;;17.00;55.00;;;;;;10363632;28;20037;-59
2022/03/31 00:50:49;;;;;;;1.10;0.60;;;16.90;55.30;;;;;;10397190;28;20034;-60
2022/03/31 00:55:50;;;;;;;1.30;0.60;;;16.90;55.30;;;;;;10378119;28;20044;-58
2022/03/31 01:00:51;;;;;;;1.08;0.60;;;16.90;55.30;;;;;;10377181;28;20025;-60
2022/03/31 01:05:51;;;;;;;0.90;0.57;;;17.00;55.00;;;;;;10370111;28;20033;-59
2022/03/31 01:10:53;;;;;;;0.90;0.60;;;17.00;54.80;;;;;;10370200;28;20049;-59
2022/03/31 01:15:54;;;;;;;0.68;0.40;;;17.00;54.80;;;;;;10369858;28;20030;-59
2022/03/31 01:20:55;;;;;;;0.93;0.68;;;17.00;55.00;;;;;;10370268;28;20033;-60
2022/03/31 01:25:56;;;;;;;1.13;0.55;;;17.00;54.90;;;;;;10370942;28;20385;-59
2022/03/31 01:30:57;;;;;;;0.80;0.50;;;17.00;54.70;;;;;;10399061;28;20033;-59
2022/03/31 01:35:59;;;;;;;0.90;0.47;;;17.00;54.80;;;;;;10378228;28;20060;-59
2022/03/31 01:40:59;;;;;;;0.30;0.30;;;17.00;55.00;;;;;;10407237;28;20117;-60
2022/03/31 01:46:00;;;;;;;1.15;0.50;;;17.00;54.80;;;;;;10393016;28;20124;-59
2022/03/31 01:51:05;;;;;;;0.80;0.43;;;17.00;54.70;;;;;;10401988;28;20113;-59
2022/03/31 01:56:09;;;;;;;1.00;0.40;;;17.00;54.80;;;;;;10386039;28;20084;-59
2022/03/31 02:01:10;;;;;;;0.45;0.38;;;16.90;54.80;;;;;;10401725;28;20041;-59
2022/03/31 02:06:10;;;;;;;0.77;0.57;;;17.00;54.60;;;;;;10363783;28;20044;-60
2022/03/31 02:11:12;;;;;;;0.68;0.50;;;17.10;54.40;;;;;;10399279;28;20050;-60
2022/03/31 02:16:14;;;;;;;0.50;0.38;;;17.10;54.30;;;;;;10392846;28;20049;-60
2022/03/31 02:21:15;;;;;;;1.65;0.80;;;17.10;54.30;;;;;;10389064;28;20037;-59
2022/03/31 02:26:16;;;;;;;0.40;0.30;;;17.00;54.40;;;;;;10414601;28;20088;-59
2022/03/31 02:31:17;;;;;;;0.40;0.32;;;16.90;54.60;;;;;;10399298;28;20111;-60
2022/03/31 02:36:18;;;;;;;0.60;0.40;;;17.00;54.40;;;;;;10404468;28;20610;-59
2022/03/31 02:41:19;;;;;;;0.98;0.22;;;17.00;54.30;;;;;;10403440;28;20120;-60
2022/03/31 02:46:20;;;;;;;0.50;0.30;;;17.10;54.20;;;;;;10401415;28;20033;-60
2022/03/31 02:51:22;;;;;;;0.40;0.40;;;17.10;54.00;;;;;;10376850;28;20538;-59
2022/03/31 02:56:22;;;;;;;1.05;0.20;;;17.10;54.10;;;;;;10385789;28;20037;-59
2022/03/31 03:01:23;;;;;;;0.30;0.20;;;17.10;54.10;;;;;;10375587;28;20066;-60
2022/03/31 03:06:25;;;;;;;0.82;0.60;;;17.10;54.00;;;;;;10378924;28;20038;-59
2022/03/31 03:11:26;;;;;;;0.30;0.30;;;17.10;54.00;;;;;;10382334;28;20095;-60
2022/03/31 03:16:26;;;;;;;0.40;0.22;;;17.00;54.10;;;;;;10397313;28;20087;-59
2022/03/31 03:21:27;;;;;;;0.45;0.40;;;17.00;54.30;;;;;;10392416;28;20102;-59
2022/03/31 03:26:29;;;;;;;0.43;0.30;;;17.00;54.00;;;;;;10393079;28;20112;-59
2022/03/31 03:31:29;;;;;;;0.55;0.55;;;17.00;54.10;;;;;;10370450;28;20054;-59
2022/03/31 03:36:30;;;;;;;0.63;0.30;;;17.00;53.90;;;;;;10375471;28;20821;-60
2022/03/31 03:41:31;;;;;;;0.30;0.20;;;17.00;53.80;;;;;;10382173;28;20112;-60
2022/03/31 03:46:32;;;;;;;0.40;0.30;;;17.00;53.90;;;;;;10391935;28;20179;-60
2022/03/31 03:51:32;;;;;;;0.45;0.40;;;17.00;54.10;;;;;;10376160;28;20065;-60
2022/03/31 03:56:33;;;;;;;0.38;0.30;;;17.00;53.90;;;;;;10396283;28;20112;-60
2022/03/31 04:01:34;;;;;;;0.50;0.30;;;17.10;53.60;;;;;;10399738;28;20057;-59
2022/03/31 04:06:34;;;;;;;1.10;0.30;;;17.10;53.60;;;;;;10374739;28;20041;-60
2022/03/31 04:11:35;;;;;;;0.30;0.22;;;17.00;54.40;;;;;;10391823;28;20065;-60
2022/03/31 04:16:36;;;;;;;0.70;0.30;;;17.00;53.80;;;;;;10395229;28;20029;-59
2022/03/31 04:21:37;;;;;;;0.40;0.20;;;17.00;53.60;;;;;;10396260;28;20501;-60
2022/03/31 04:26:38;;;;;;;0.30;0.25;;;17.10;53.20;;;;;;10409619;28;20489;-60
2022/03/31 04:31:42;;;;;;;0.47;0.35;;;17.20;53.30;;;;;;10395554;28;20108;-59
2022/03/31 04:36:43;;;;;;;0.25;0.17;;;17.20;53.10;;;;;;10375848;28;20025;-60
2022/03/31 04:41:44;;;;;;;0.28;0.20;;;17.20;53.10;;;;;;10401058;28;20334;-59
2022/03/31 04:46:45;;;;;;;0.45;0.30;;;17.10;53.20;;;;;;10360745;28;20029;-59
2022/03/31 04:51:46;;;;;;;0.68;0.30;;;17.10;53.50;;;;;;10374086;28;20041;-59
2022/03/31 04:56:47;;;;;;;0.20;0.20;;;17.10;53.20;;;;;;10401571;28;20040;-59
2022/03/31 05:01:48;;;;;;;3.72;0.70;;;17.10;53.30;;;;;;10371601;28;20081;-61
2022/03/31 05:06:49;;;;;;;6.68;0.40;;;17.00;53.70;;;;;;10376572;28;20389;-60
2022/03/31 05:11:50;;;;;;;5.10;0.77;;;17.20;53.40;;;;;;10378435;28;20441;-61
2022/03/31 05:16:51;;;;;;;6.47;0.77;;;17.20;54.70;;;;;;10382681;28;20075;-61
2022/03/31 05:21:53;;;;;;;4.10;0.50;;;17.10;54.80;;;;;;10388490;28;20033;-62
2022/03/31 05:26:53;;;;;;;6.00;1.23;;;17.20;54.70;;;;;;10419068;28;20116;-62
2022/03/31 05:31:55;;;;;;;23.05;2.65;;;17.10;54.80;;;;;;10394199;28;20137;-60
2022/03/31 05:36:56;;;;;;;16.90;2.22;;;17.10;54.90;;;;;;10388614;28;20108;-59
2022/03/31 05:41:57;;;;;;;13.82;1.42;;;17.10;55.00;;;;;;10402172;28;20464;-60
2022/03/31 05:46:58;;;;;;;12.10;1.63;;;17.10;54.80;;;;;;10389131;28;20057;-61
2022/03/31 05:51:59;;;;;;;19.52;2.00;;;16.90;55.30;;;;;;10366612;28;20084;-62
2022/03/31 05:56:59;;;;;;;17.02;2.08;;;16.80;54.60;;;;;;10389027;28;20108;-61
2022/03/31 06:02:01;;;;;;;10.52;1.73;;;16.90;54.40;;;;;;10380503;28;20045;-61
2022/03/31 06:07:03;;;;;;;7.05;1.42;;;16.90;54.70;;;;;;10380081;28;20506;-61
2022/03/31 06:12:04;;;;;;;9.82;1.52;;;16.90;54.30;;;;;;10388912;28;20073;-62
2022/03/31 06:17:05;;;;;;;7.68;1.88;;;16.80;54.10;;;;;;10392442;28;20048;-62
2022/03/31 06:22:07;;;;;;;8.57;1.38;;;16.90;54.00;;;;;;10396453;28;20041;-62
2022/03/31 06:27:09;;;;;;;5.53;1.00;;;16.90;53.90;;;;;;10382231;28;20033;-62
2022/03/31 06:32:10;;;;;;;8.18;0.95;;;16.90;53.90;;;;;;10396461;28;20022;-62
2022/03/31 06:37:11;;;;;;;8.45;1.20;;;16.90;54.00;;;;;;10365515;28;20449;-63
2022/03/31 06:42:12;;;;;;;7.88;1.38;;;16.80;54.00;;;;;;10394220;28;20069;-64
2022/03/31 06:47:13;;;;;;;7.13;1.15;;;16.90;53.70;;;;;;10386549;28;20389;-64
2022/03/31 06:52:14;;;;;;;7.80;1.17;;;17.00;53.40;;;;;;10392682;28;20105;-63
2022/03/31 06:57:15;;;;;;;6.97;0.90;;;17.00;53.40;;;;;;10376742;28;20029;-63
2022/03/31 07:02:15;;;;;;;6.22;0.90;;;16.90;53.50;;;;;;10370304;28;20552;-63
2022/03/31 07:07:16;;;;;;;7.05;1.15;;;16.90;53.70;;;;;;10389029;28;20453;-64
2022/03/31 07:12:17;;;;;;;7.50;1.10;;;16.90;53.40;;;;;;10387677;28;20113;-64
2022/03/31 07:17:18;;;;;;;7.10;1.10;;;16.90;53.40;;;;;;10389697;28;20426;-65
2022/03/31 07:22:18;;;;;;;6.57;1.02;;;16.90;53.60;;;;;;10406651;28;20112;-64
2022/03/31 07:27:19;;;;;;;3.10;0.50;;;16.80;53.50;;;;;;10384343;28;20532;-63
2022/03/31 07:32:20;;;;;;;3.50;0.60;;;16.90;53.20;;;;;;10376389;28;20108;-63
2022/03/31 07:37:21;;;;;;;7.03;1.00;;;16.90;53.40;;;;;;10393311;28;20168;-63
2022/03/31 07:42:22;;;;;;;2.65;0.88;;;16.80;53.40;;;;;;10389739;28;20068;-64
2022/03/31 07:47:22;;;;;;;4.40;0.90;;;16.90;53.40;;;;;;10401740;28;20037;-63
2022/03/31 07:52:23;;;;;;;2.95;0.80;;;16.90;53.00;;;;;;10377373;28;20052;-63
2022/03/31 07:57:24;;;;;;;2.88;0.65;;;17.00;52.80;;;;;;10401287;28;20080;-62
2022/03/31 08:02:25;;;;;;;3.72;0.85;;;17.00;52.70;;;;;;10392606;28;20069;-62
2022/03/31 08:07:25;;;;;;;4.05;0.77;;;17.00;52.80;;;;;;10409753;28;20148;-62
2022/03/31 08:12:26;;;;;;;2.80;0.68;;;16.90;53.00;;;;;;10390941;28;20113;-62
2022/03/31 08:17:27;;;;;;;1.75;0.52;;;17.00;52.90;;;;;;10386827;28;20079;-62
2022/03/31 08:22:28;;;;;;;3.15;0.70;;;17.00;52.80;;;;;;10412316;28;20493;-62
2022/03/31 08:27:29;;;;;;;2.30;0.40;;;17.00;53.00;;;;;;10383175;28;20133;-62
2022/03/31 08:32:34;;;;;;;2.25;0.50;;;16.90;53.10;;;;;;10364052;28;20029;-62
2022/03/31 08:37:37;;;;;;;2.75;0.55;;;16.80;53.30;;;;;;10397116;28;20051;-62
2022/03/31 08:42:39;;;;;;;1.00;0.32;;;16.90;53.20;;;;;;10386694;28;20390;-62
2022/03/31 08:47:42;;;;;;;2.50;0.50;;;16.90;53.10;;;;;;10371939;28;20037;-62
2022/03/31 08:52:43;;;;;;;2.38;0.50;;;16.90;53.00;;;;;;10366378;28;20041;-62
2022/03/31 08:57:47;;;;;;;2.10;0.45;;;16.90;53.10;;;;;;10395167;28;20371;-62
2022/03/31 09:03:07;;;;;;;3.63;0.50;;;16.90;53.00;;;;;;10411985;28;20026;-62
2022/03/31 09:08:11;;;;;;;;;;;16.90;52.80;;;;;;10409648;28;20049;-61
2022/03/31 09:13:21;;;;;;;3.65;0.40;;;16.90;52.90;;;;;;10382616;28;19918;-61
2022/03/31 09:18:25;;;;;;;0.80;0.38;;;16.90;53.10;;;;;;10383343;28;20034;-63
2022/03/31 09:23:32;;;;;;;1.63;0.80;;;16.90;52.90;;;;;;10356648;28;20071;-64
2022/03/31 09:28:33;;;;;;;1.63;1.05;;;17.00;52.90;;;;;;10376458;28;20044;-63
2022/03/31 09:33:44;;;;;;;1.35;0.32;;;16.90;53.00;;;;;;10380609;28;20030;-63
2022/03/31 09:39:07;;;;;;;0.60;0.50;;;16.90;52.90;;;;;;10366444;28;20030;-63
2022/03/31 09:44:21;;;;;;;1.85;0.40;;;17.00;52.90;;;;;;10404305;28;20440;-63
2022/03/31 09:49:27;;;;;;;1.00;0.30;;;16.90;53.00;;;;;;10376171;28;20030;-63
2022/03/31 09:54:32;;;;;;;1.10;0.40;;;16.90;53.20;;;;;;10389101;28;20058;-63
2022/03/31 09:59:39;;;;;;;0.47;0.30;;;16.90;52.90;;;;;;10377736;28;20046;-63
2022/03/31 10:04:44;;;;;;;1.38;0.85;;;16.90;52.90;;;;;;10397918;28;20070;-64
2022/03/31 10:09:45;;;;;;;0.88;0.30;;;16.90;53.00;;;;;;10380625;28;20088;-63
2022/03/31 10:15:11;;;;;;;0.82;0.32;;;16.90;53.00;;;;;;10374117;28;20527;-64
2022/03/31 10:20:14;;;;;;;0.77;0.22;;;16.90;53.00;;;;;;10389637;28;20061;-64
2022/03/31 10:25:15;;;;;;;1.23;0.40;;;16.80;53.10;;;;;;10385519;28;20022;-63
2022/03/31 10:30:21;;;;;;;0.50;0.30;;;16.80;53.20;;;;;;10375921;28;20386;-64
2022/03/31 10:35:25;;;;;;;0.55;0.20;;;16.90;52.90;;;;;;10385773;28;20085;-63
2022/03/31 10:40:38;;;;;;;0.77;0.30;;;16.90;52.90;;;;;;10384103;28;20063;-64
2022/03/31 10:45:42;;;;;;;0.25;0.20;;;16.90;53.10;;;;;;10374024;28;20049;-63
2022/03/31 10:50:43;;;;;;;0.30;0.20;;;16.90;53.00;;;;;;10375766;28;20465;-64
2022/03/31 10:55:49;;;;;;;0.65;0.25;;;16.90;52.90;;;;;;10362354;28;20044;-64
2022/03/31 11:00:50;;;;;;;0.50;0.20;;;16.90;53.00;;;;;;10375066;28;20030;-64
2022/03/31 11:05:51;;;;;;;0.82;0.43;;;16.90;53.10;;;;;;10380036;28;20041;-64
2022/03/31 11:10:54;;;;;;;0.65;0.25;;;16.90;52.90;;;;;;10387911;28;20069;-64
2022/03/31 11:15:55;;;;;;;0.85;0.20;;;16.90;52.90;;;;;;10380476;28;20034;-64
2022/03/31 11:21:02;;;;;;;1.08;0.30;;;16.90;53.00;;;;;;10369447;28;20076;-66
2022/03/31 11:26:03;;;;;;;0.73;0.30;;;16.90;53.00;;;;;;10373708;28;20083;-65
2022/03/31 11:31:13;;;;;;;0.82;0.40;;;16.90;53.00;;;;;;10373926;28;20030;-65
2022/03/31 11:36:14;;;;;;;0.50;0.22;;;16.90;53.00;;;;;;10390110;28;20026;-66
2022/03/31 11:41:16;;;;;;;0.70;0.30;;;16.90;53.00;;;;;;10403430;28;20103;-64
2022/03/31 11:46:17;;;;;;;0.38;0.20;;;16.90;53.20;;;;;;10403195;28;20091;-64
2022/03/31 11:51:18;;;;;;;1.15;0.20;;;16.80;53.20;;;;;;10414660;28;20030;-65
2022/03/31 11:56:22;;;;;;;0.55;0.45;;;16.90;53.00;;;;;;10378445;28;20414;-64
2022/03/31 12:01:34;;;;;;;0.55;0.30;;;16.90;53.10;;;;;;10390163;28;20381;-64
2022/03/31 12:06:35;;;;;;;4.15;0.40;;;16.80;53.20;;;;;;10398215;28;20037;-64
2022/03/31 12:11:36;;;;;;;0.50;0.30;;;16.90;53.10;;;;;;10374271;28;20034;-64
2022/03/31 12:16:49;;;;;;;4.05;0.50;;;17.00;53.00;;;;;;10377526;28;20044;-64
2022/03/31 12:21:58;;;;;;;3.60;0.30;;;16.90;53.20;;;;;;10387739;28;20060;-64
2022/03/31 12:27:05;;;;;;;0.40;0.30;;;17.00;52.80;;;;;;10408954;28;20041;-64
2022/03/31 12:32:09;;;;;;;2.45;0.30;;;17.10;52.40;;;;;;10366867;28;20033;-63
2022/03/31 12:37:10;;;;;;;0.57;0.20;;;17.10;52.60;;;;;;10383272;28;20041;-64
2022/03/31 12:42:11;;;;;;;1.55;0.30;;;17.00;52.70;;;;;;10375220;28;20022;-63
2022/03/31 12:47:23;;;;;;;0.10;0.10;;;17.00;53.00;;;;;;10379864;28;20041;-63
2022/03/31 12:52:24;;;;;;;1.20;0.50;;;16.90;53.20;;;;;;10378442;28;20029;-63
2022/03/31 12:57:27;;;;;;;1.67;0.20;;;16.80;53.40;;;;;;10385695;28;20517;-63
2022/03/31 13:02:32;;;;;;;2.75;0.40;;;16.80;53.70;;;;;;10372415;28;20034;-63
2022/03/31 13:07:33;;;;;;;0.52;0.30;;;16.70;53.80;;;;;;10371510;28;20046;-64
2022/03/31 13:12:33;;;;;;;0.82;0.30;;;16.60;54.00;;;;;;10371778;28;20370;-64
2022/03/31 13:17:35;;;;;;;5.55;0.65;;;16.70;53.90;;;;;;10392827;28;20036;-63
2022/03/31 13:22:37;;;;;;;0.70;0.35;;;16.70;53.70;;;;;;10411440;28;20037;-64
2022/03/31 13:27:38;;;;;;;0.35;0.22;;;16.80;53.60;;;;;;10410127;28;20029;-65
2022/03/31 13:32:39;;;;;;;0.20;0.20;;;16.80;53.20;;;;;;10400751;28;20390;-64
2022/03/31 13:37:40;;;;;;;1.45;0.20;;;16.90;53.30;;;;;;10419154;28;20052;-64
2022/03/31 13:42:41;;;;;;;0.85;0.20;;;16.90;53.10;;;;;;10377831;28;20457;-64
2022/03/31 13:47:48;;;;;;;1.30;0.40;;;16.90;53.10;;;;;;10390284;28;20085;-63
2022/03/31 13:53:43;;;;;;;0.30;0.20;;;16.80;53.40;;;;;;10389340;28;20030;-59
2022/03/31 14:03:28;;;;;;;0.85;0.20;;;16.90;52.90;;;;;;10387419;28;20125;-62
2022/03/31 14:08:29;;;;;;;0.22;0.20;;;17.10;52.50;;;;;;10369554;28;20038;-62
2022/03/31 14:13:35;;;;;;;0.68;0.30;;;17.00;52.50;;;;;;10392805;28;20038;-62
2022/03/31 14:18:41;;;;;;;0.60;0.20;;;17.00;52.70;;;;;;10404034;28;20535;-63
2022/03/31 14:23:43;;;;;;;0.88;0.20;;;17.00;52.90;;;;;;10382077;28;20377;-63
2022/03/31 14:28:45;;;;;;;0.77;0.43;;;16.90;52.80;;;;;;10397254;28;20022;-63
2022/03/31 14:33:48;;;;;;;1.17;0.20;;;16.90;52.80;;;;;;10373159;28;20474;-62
2022/03/31 14:38:49;;;;;;;0.35;0.10;;;16.90;53.00;;;;;;10414831;28;20148;-62
2022/03/31 14:43:56;;;;;;;0.10;0.10;;;16.90;52.80;;;;;;10376558;28;20037;-63
2022/03/31 14:48:57;;;;;;;1.10;0.20;;;16.90;52.80;;;;;;10380424;28;20030;-63
2022/03/31 14:53:58;;;;;;;1.85;0.30;;;16.90;52.90;;;;;;10390638;28;20060;-63
2022/03/31 14:58:58;;;;;;;0.50;0.30;;;16.90;53.00;;;;;;10389071;28;20076;-62
2022/03/31 15:03:59;;;;;;;6.38;0.57;;;17.00;52.10;;;;;;10411213;28;20146;-53
2022/03/31 15:09:01;;;;;;;1.48;0.40;;;17.00;52.70;;;;;;10391486;28;20038;-51
2022/03/31 15:19:23;;;;;;;0.30;0.30;;;17.00;52.60;;;;;;10375610;28;20150;-51
2022/03/31 15:24:24;;;;;;;0.22;0.17;;;17.00;52.60;;;;;;10369500;28;20030;-51
2022/03/31 15:29:24;;;;;;;0.10;0.10;;;17.00;52.70;;;;;;10382051;28;20026;-52
2022/03/31 15:34:25;;;;;;;0.90;0.25;;;17.00;52.70;;;;;;10375563;28;20486;-49
2022/03/31 15:39:26;;;;;;;0.35;0.20;;;17.00;52.70;;;;;;10387666;28;20041;-50
2022/03/31 15:44:26;;;;;;;1.55;0.30;;;17.00;52.80;;;;;;10384576;28;20104;-53
2022/03/31 15:49:28;;;;;;;4.50;0.65;;;17.00;52.70;;;;;;10384052;28;20018;-54
2022/03/31 15:54:29;;;;;;;9.45;1.35;;;16.90;53.20;;;;;;10410885;28;20359;-54
2022/03/31 15:59:34;;;;;;;9.00;2.00;;;16.80;53.40;;;;;;10395565;28;20038;-52
2022/03/31 16:04:36;;;;;;;9.25;1.73;;;16.80;54.00;;;;;;10407801;28;20413;-51
2022/03/31 16:09:36;;;;;;;8.77;1.48;;;16.80;54.40;;;;;;10413734;28;20038;-52
2022/03/31 16:14:37;;;;;;;25.10;13.02;;;16.80;54.70;;;;;;10413518;28;20048;-53
2022/03/31 16:19:38;;;;;;;33.35;20.73;;;16.70;55.10;;;;;;10414073;28;20033;-53
2022/03/31 16:24:42;;;;;;;66.93;47.47;;;16.70;55.20;;;;;;10366373;28;20485;-52
2022/03/31 16:29:43;;;;;;;17.80;12.13;;;16.70;56.20;;;;;;10399978;28;20037;-54
2022/03/31 16:34:43;;;;;;;20.48;11.10;;;16.80;55.30;;;;;;10371741;28;20032;-53
2022/03/31 16:39:44;;;;;;;25.05;12.68;;;16.80;55.30;;;;;;10362467;28;20037;-52
2022/03/31 16:44:45;;;;;;;18.60;9.98;;;16.80;55.30;;;;;;10371031;28;20067;-50
2022/03/31 16:49:46;;;;;;;15.80;8.52;;;16.80;54.90;;;;;;10372303;28;20018;-53
2022/03/31 16:54:47;;;;;;;15.60;6.97;;;16.90;54.40;;;;;;10391339;28;20067;-49
2022/03/31 16:59:47;;;;;;;28.65;9.05;;;17.00;53.90;;;;;;10366816;28;20029;-52
2022/03/31 17:04:48;;;;;;;21.90;8.10;;;17.10;54.40;;;;;;10392166;28;20124;-51
2022/03/31 17:09:49;;;;;;;19.98;6.90;;;17.10;53.90;;;;;;10411234;28;20069;-49
2022/03/31 17:14:50;;;;;;;17.83;7.65;;;17.00;54.50;;;;;;10412908;28;20041;-50
2022/03/31 17:19:51;;;;;;;18.25;7.07;;;17.00;54.20;;;;;;10392377;28;20080;-48
2022/03/31 17:24:51;;;;;;;13.35;6.82;;;17.00;54.10;;;;;;10370915;28;20116;-50
2022/03/31 17:29:52;;;;;;;16.75;7.07;;;17.00;54.10;;;;;;10371100;28;20703;-50
2022/03/31 17:34:54;;;;;;;16.73;6.40;;;16.90;54.20;;;;;;10371488;28;20030;-52
2022/03/31 17:39:55;;;;;;;11.27;5.15;;;16.90;54.00;;;;;;10377519;28;20026;-52
2022/03/31 17:44:55;;;;;;;11.77;6.05;;;17.00;53.90;;;;;;10404887;28;20049;-60
2022/03/31 17:49:56;;;;;;;10.15;5.72;;;16.90;54.00;;;;;;10371027;28;20094;-60
2022/03/31 17:54:59;;;;;;;15.80;5.20;;;16.90;54.10;;;;;;10384089;28;20042;-59
2022/03/31 18:00:00;;;;;;;11.30;4.63;;;16.90;54.80;;;;;;10387740;28;20449;-60
2022/03/31 18:05:01;;;;;;;9.23;4.45;;;16.90;54.50;;;;;;10384917;28;20034;-59
2022/03/31 18:10:02;;;;;;;11.55;5.70;;;16.90;55.00;;;;;;10385624;28;20072;-59
2022/03/31 18:15:03;;;;;;;10.60;4.30;;;16.90;55.10;;;;;;10374561;28;20037;-59
2022/03/31 18:20:06;;;;;;;17.27;5.78;;;17.10;54.40;;;;;;10394488;28;20446;-59
2022/03/31 18:25:09;;;;;;;9.50;3.97;;;17.30;54.20;;;;;;10392094;28;20033;-59
2022/03/31 18:35:35;;;;;;;10.50;3.83;;;17.30;54.80;;;;;;10417920;28;20414;-60
2022/03/31 18:40:35;;;;;;;12.43;4.03;;;17.40;55.20;;;;;;10404682;28;20064;-61
2022/03/31 18:45:36;;;;;;;8.27;3.75;;;17.30;55.20;;;;;;10388763;28;20117;-61
2022/03/31 18:50:38;;;;;;;10.93;3.70;;;17.30;55.10;;;;;;10371737;28;20029;-60
2022/03/31 18:55:41;;;;;;;9.38;3.70;;;17.30;55.20;;;;;;10367718;28;20509;-60
2022/03/31 19:00:42;;;;;;;6.25;3.42;;;17.50;55.10;;;;;;10369705;28;20068;-60
2022/03/31 19:05:43;;;;;;;7.35;3.70;;;17.50;55.10;;;;;;10396303;28;20040;-59
2022/03/31 19:10:47;;;;;;;8.23;3.50;;;17.40;55.50;;;;;;10391394;28;20513;-59
2022/03/31 19:15:48;;;;;;;7.15;3.22;;;17.40;55.40;;;;;;10373725;28;20025;-61
2022/03/31 19:20:49;;;;;;;6.35;3.08;;;17.40;55.40;;;;;;10376397;28;20458;-60
2022/03/31 19:25:50;;;;;;;8.35;4.40;;;17.40;56.00;;;;;;10390648;28;20028;-60
2022/03/31 19:30:52;;;;;;;6.78;2.95;;;17.50;56.30;;;;;;10367722;28;20460;-58
2022/03/31 19:35:52;;;;;;;6.10;3.15;;;17.50;56.00;;;;;;10387040;28;20049;-61
2022/03/31 19:40:53;;;;;;;7.05;3.83;;;17.30;56.10;;;;;;10374556;28;20047;-60
2022/03/31 19:45:54;;;;;;;4.97;2.95;;;17.10;56.60;;;;;;10375739;28;20113;-60
2022/03/31 19:50:57;;;;;;;6.30;3.45;;;17.00;56.60;;;;;;10387375;28;20043;-60
2022/03/31 19:55:58;;;;;;;5.47;3.88;;;16.90;56.60;;;;;;10386205;28;20482;-60
2022/03/31 20:01:00;;;;;;;4.45;3.15;;;16.90;56.40;;;;;;10384812;28;20192;-61
2022/03/31 20:06:02;;;;;;;4.63;2.80;;;16.90;56.00;;;;;;10413067;28;20034;-60
2022/03/31 20:11:05;;;;;;;5.50;3.10;;;17.00;55.90;;;;;;10404706;28;20052;-61
2022/03/31 20:16:06;;;;;;;7.95;3.17;;;17.00;55.80;;;;;;10402284;28;20029;-60
2022/03/31 20:21:07;;;;;;;6.45;2.90;;;17.00;55.60;;;;;;10369386;28;20068;-60
2022/03/31 20:26:10;;;;;;;4.72;2.88;;;17.00;55.50;;;;;;10412827;28;20083;-60
2022/03/31 20:31:11;;;;;;;5.43;3.08;;;16.90;55.50;;;;;;10382884;28;20026;-60
2022/03/31 20:36:12;;;;;;;5.63;3.40;;;16.90;55.50;;;;;;10388960;28;20069;-60
2022/03/31 20:41:13;;;;;;;7.20;2.90;;;16.90;55.50;;;;;;10372587;28;20045;-59
2022/03/31 20:46:13;;;;;;;3.92;2.35;;;16.90;55.30;;;;;;10354820;28;20125;-59
2022/03/31 20:51:14;;;;;;;5.07;2.67;;;16.90;55.30;;;;;;10372164;28;20494;-59
2022/03/31 20:56:18;;;;;;;4.50;2.70;;;16.90;55.30;;;;;;10373601;28;20462;-59
2022/03/31 21:01:19;;;;;;;5.03;2.20;;;16.90;55.30;;;;;;10372083;28;20030;-59
2022/03/31 21:06:20;;;;;;;5.68;2.65;;;16.90;55.30;;;;;;10366648;28;20030;-59
2022/03/31 21:11:21;;;;;;;3.92;2.40;;;16.80;55.30;;;;;;10380578;28;20054;-59
2022/03/31 21:16:21;;;;;;;5.05;2.42;;;16.80;55.30;;;;;;10371885;28;20101;-59
2022/03/31 21:21:23;;;;;;;4.97;2.55;;;16.80;55.20;;;;;;10408610;28;20120;-58
2022/03/31 21:26:24;;;;;;;5.75;2.85;;;16.80;54.90;;;;;;10379447;28;20042;-59
2022/03/31 21:31:24;;;;;;;3.03;2.00;;;16.80;55.00;;;;;;10371523;28;20501;-60
2022/03/31 21:36:25;;;;;;;3.55;2.22;;;16.80;54.90;;;;;;10372118;28;20458;-59
2022/03/31 21:41:26;;;;;;;6.22;2.50;;;16.80;54.90;;;;;;10371860;28;20480;-59
2022/03/31 21:46:27;;;;;;;4.25;1.95;;;16.80;54.80;;;;;;10373817;28;20064;-59
2022/03/31 21:51:28;;;;;;;3.47;2.25;;;16.80;54.90;;;;;;10379184;28;20033;-59
2022/03/31 21:56:33;;;;;;;6.22;2.90;;;16.80;54.60;;;;;;10380289;28;20084;-59
2022/03/31 22:01:37;;;;;;;4.15;2.15;;;16.80;54.60;;;;;;10415964;28;20420;-59
2022/03/31 22:06:38;;;;;;;4.53;2.13;;;16.80;54.60;;;;;;10375652;28;20075;-59
2022/03/31 22:11:44;;;;;;;2.97;1.88;;;16.80;54.50;;;;;;10378208;28;20582;-59
2022/03/31 22:16:55;;;;;;;2.65;1.60;;;16.80;54.40;;;;;;10378044;28;20029;-58
2022/03/31 22:22:03;;;;;;;3.17;1.85;;;16.80;54.40;;;;;;10388067;28;20427;-59
2022/03/31 22:27:11;;;;;;;2.75;1.70;;;16.80;54.30;;;;;;10417763;28;20040;-59
2022/03/31 22:32:13;;;;;;;4.57;1.70;;;16.80;54.40;;;;;;10373803;28;20036;-59
2022/03/31 22:37:13;;;;;;;6.65;2.45;;;16.80;54.20;;;;;;10372773;28;20638;-59
2022/03/31 22:42:15;;;;;;;7.15;1.83;;;16.80;54.10;;;;;;10377307;28;20109;-59
2022/03/31 22:47:15;;;;;;;3.63;1.92;;;16.90;53.80;;;;;;10376926;28;20054;-59
2022/03/31 22:52:16;;;;;;;2.28;1.63;;;16.90;53.60;;;;;;10387855;28;20146;-59
2022/03/31 22:57:17;;;;;;;2.80;1.63;;;16.90;53.60;;;;;;10376256;28;20068;-59
2022/03/31 23:02:17;;;;;;;2.78;1.80;;;16.90;53.70;;;;;;10376401;28;20152;-59
2022/03/31 23:07:18;;;;;;;2.08;1.45;;;16.90;53.50;;;;;;10375903;28;20042;-59
2022/03/31 23:12:19;;;;;;;2.88;1.33;;;16.90;53.50;;;;;;10355368;28;20022;-59
2022/03/31 23:17:20;;;;;;;2.17;1.00;;;16.90;53.30;;;;;;10375891;28;20038;-59
2022/03/31 23:22:21;;;;;;;2.47;1.60;;;17.00;53.20;;;;;;10386527;28;20037;-59
2022/03/31 23:27:21;;;;;;;2.40;1.40;;;17.00;53.30;;;;;;10384793;28;20060;-59
2022/03/31 23:32:22;;;;;;;3.15;1.92;;;16.90;53.30;;;;;;10385197;28;20128;-59
2022/03/31 23:37:23;;;;;;;2.05;1.48;;;16.90;53.30;;;;;;10416019;28;20066;-60
2022/03/31 23:42:25;;;;;;;2.45;1.75;;;16.90;53.40;;;;;;10396967;28;20026;-59
2022/03/31 23:47:26;;;;;;;3.60;2.08;;;16.90;53.30;;;;;;10374772;28;20080;-59
2022/03/31 23:52:27;;;;;;;2.42;1.30;;;16.90;53.20;;;;;;10358435;28;20036;-59
2022/03/31 23:57:28;;;;;;;2.40;1.33;;;17.00;53.00;;;;;;10375189;28;20034;-59
